Time;durP1;ratioP1;P1;durP2;ratioP2;P2;SDS_P1;SDS_P2;PMS_P1;PMS_P2;Temp;Humidity;BMP_temperature;BMP_pressure;BME280_temperature;BME280_humidity;BME280_pressure;Samples;Min_cycle;Max_cycle;Signal;HPM_P1;HPM_P2
2022/03/30 00:00:14;;;;;;;55.63;38.28;;;;;;;6.54;100.00;98089.91;2090422;28;20757;-71
2022/03/30 00:01:18;;;;;;;57.08;39.97;;;;;;;6.50;100.00;98084.38;2082001;28;20713;-71
2022/03/30 00:02:22;;;;;;;55.38;38.92;;;;;;;6.49;100.00;98082.81;2081646;28;20286;-71
2022/03/30 00:03:27;;;;;;;55.58;39.15;;;;;;;6.50;100.00;98094.97;2082267;28;20204;-71
2022/03/30 00:04:32;;;;;;;51.33;37.55;;;;;;;6.47;100.00;98090.28;2082651;28;20298;-71
2022/03/30 00:05:33;;;;;;;53.03;38.58;;;;;;;6.48;100.00;98092.63;2082085;28;20745;-72
2022/03/30 00:06:39;;;;;;;56.88;39.50;;;;;;;6.48;100.00;98097.94;2089803;28;20276;-72
2022/03/30 00:07:42;;;;;;;59.08;39.22;;;;;;;6.48;100.00;98097.13;2090657;28;20202;-71
2022/03/30 00:08:44;;;;;;;53.70;38.78;;;;;;;6.47;100.00;98095.56;2090080;28;20654;-72
2022/03/30 00:09:48;;;;;;;62.33;39.88;;;;;;;6.48;100.00;98091.84;2090098;28;20203;-73
2022/03/30 00:10:52;;;;;;;55.58;37.90;;;;;;;6.47;100.00;98087.63;2090044;28;20310;-71
2022/03/30 00:11:53;;;;;;;53.72;38.55;;;;;;;6.47;100.00;98092.91;2090242;28;20717;-73
2022/03/30 00:12:56;;;;;;;53.67;38.45;;;;;;;6.47;100.00;98090.28;2090728;28;20697;-71
2022/03/30 00:13:59;;;;;;;54.13;37.70;;;;;;;6.47;100.00;98095.56;2090725;28;20187;-72
2022/03/30 00:15:00;;;;;;;55.83;37.65;;;;;;;6.46;100.00;98086.06;2090683;28;20198;-72
2022/03/30 00:16:03;;;;;;;54.80;37.85;;;;;;;6.46;100.00;98086.06;2089869;28;20705;-72
2022/03/30 00:17:04;;;;;;;51.42;36.63;;;;;;;6.45;100.00;98087.13;2090245;28;20202;-72
2022/03/30 00:18:07;;;;;;;59.95;38.85;;;;;;;6.45;100.00;98084.50;2090190;28;20203;-72
2022/03/30 00:19:09;;;;;;;54.22;37.58;;;;;;;6.45;100.00;98082.63;2090094;28;20194;-72
2022/03/30 00:20:14;;;;;;;56.50;37.67;;;;;;;6.46;100.00;98080.75;2090868;28;20198;-72
2022/03/30 00:21:17;;;;;;;53.85;37.92;;;;;;;6.45;100.00;98072.03;2089797;28;20229;-72
2022/03/30 00:22:19;;;;;;;56.78;37.88;;;;;;;6.44;100.00;98075.75;2089968;28;20203;-72
2022/03/30 00:23:22;;;;;;;52.13;38.63;;;;;;;6.43;100.00;98066.25;2090609;28;20222;-72
2022/03/30 00:24:23;;;;;;;54.53;38.28;;;;;;;6.43;100.00;98060.94;2090800;28;20199;-72
2022/03/30 00:25:27;;;;;;;58.35;38.03;;;;;;;6.46;100.00;98070.16;2090119;28;20277;-72
2022/03/30 00:26:31;;;;;;;52.83;37.10;;;;;;;6.44;100.00;98067.03;2081608;28;20207;-72
2022/03/30 00:27:34;;;;;;;59.97;38.25;;;;;;;6.45;100.00;98068.59;2090320;28;20195;-72
2022/03/30 00:28:37;;;;;;;55.70;38.55;;;;;;;6.44;100.00;98072.31;2089904;28;20580;-72
2022/03/30 00:29:42;;;;;;;57.72;38.10;;;;;;;6.43;100.00;98073.41;2090133;28;20206;-72
2022/03/30 00:30:45;;;;;;;62.13;39.35;;;;;;;6.41;100.00;98063.06;2090534;28;20183;-72
2022/03/30 00:31:46;;;;;;;59.67;38.28;;;;;;;6.44;100.00;98077.63;2090159;28;20202;-72
2022/03/30 00:32:48;;;;;;;56.43;38.97;;;;;;;6.41;100.00;98071.03;2089925;28;20199;-72
2022/03/30 00:33:52;;;;;;;55.67;38.80;;;;;;;6.40;100.00;98063.38;2089768;28;20304;-72
2022/03/30 00:34:54;;;;;;;60.17;40.53;;;;;;;6.41;100.00;98070.25;2089839;28;20561;-72
2022/03/30 00:35:57;;;;;;;54.85;37.20;;;;;;;6.40;100.00;98063.38;2081425;28;20207;-72
2022/03/30 00:37:00;;;;;;;50.92;38.17;;;;;;;6.42;100.00;98071.81;2090191;28;20198;-72
2022/03/30 00:38:01;;;;;;;51.80;36.67;;;;;;;6.40;100.00;98066.81;2089711;28;20210;-72
2022/03/30 00:39:04;;;;;;;56.03;38.28;;;;;;;6.38;100.00;98062.88;2089826;28;20213;-72
2022/03/30 00:40:09;;;;;;;56.33;37.78;;;;;;;6.38;100.00;98060.25;2081873;28;20196;-72
2022/03/30 00:41:11;;;;;;;56.40;38.05;;;;;;;6.39;100.00;98056.50;2089943;28;20214;-72
2022/03/30 00:42:19;;;;;;;57.90;39.50;;;;;;;6.40;100.00;98061.50;2089684;28;20207;-72
2022/03/30 00:43:22;;;;;;;54.47;39.53;;;;;;;6.39;100.00;98056.50;2089983;28;20215;-72
2022/03/30 00:44:23;;;;;;;55.58;39.38;;;;;;;6.40;100.00;98058.06;2090435;28;20194;-72
2022/03/30 00:45:25;;;;;;;58.20;38.85;;;;;;;6.41;100.00;98059.63;2089663;28;20210;-72
2022/03/30 00:46:30;;;;;;;53.00;39.33;;;;;;;6.40;100.00;98063.38;2089876;28;20780;-72
2022/03/30 00:47:32;;;;;;;51.67;38.33;;;;;;;6.40;100.00;98064.16;2089732;28;20598;-72
2022/03/30 00:48:35;;;;;;;58.72;39.70;;;;;;;6.40;100.00;98063.38;2089475;28;20286;-72
2022/03/30 00:49:36;;;;;;;55.08;37.72;;;;;;;6.39;100.00;98059.16;2089921;28;20205;-72
2022/03/30 00:50:39;;;;;;;60.65;38.85;;;;;;;6.37;100.00;98053.38;2089310;28;20209;-72
2022/03/30 00:51:43;;;;;;;60.28;40.78;;;;;;;6.37;100.00;98054.16;2089321;28;20283;-72
2022/03/30 00:52:47;;;;;;;55.83;38.17;;;;;;;6.38;100.00;98054.94;2089894;28;20179;-72
2022/03/30 00:53:50;;;;;;;56.65;38.63;;;;;;;6.38;100.00;98052.28;2090535;28;20198;-72
2022/03/30 00:54:54;;;;;;;58.53;37.58;;;;;;;6.36;100.00;98055.22;2090428;28;20706;-72
2022/03/30 00:55:55;;;;;;;58.60;37.97;;;;;;;6.40;100.00;98052.78;2089630;28;20652;-72
2022/03/30 00:56:57;;;;;;;51.75;37.70;;;;;;;6.43;100.00;98054.84;2089843;28;20183;-72
2022/03/30 00:57:59;;;;;;;56.40;37.72;;;;;;;6.42;100.00;98047.97;2089611;28;20198;-71
2022/03/30 00:59:05;;;;;;;58.78;39.35;;;;;;;6.40;100.00;98047.47;2089468;28;20268;-72
2022/03/30 01:00:08;;;;;;;54.38;37.90;;;;;;;6.41;100.00;98041.88;2089669;28;20195;-72
2022/03/30 01:01:11;;;;;;;55.70;37.75;;;;;;;6.41;100.00;98049.03;2089863;28;20187;-72
2022/03/30 01:02:16;;;;;;;52.75;36.22;;;;;;;6.39;100.00;98044.03;2089658;28;20202;-72
2022/03/30 01:03:21;;;;;;;55.75;38.60;;;;;;;6.39;100.00;98045.91;2088865;28;20205;-72
2022/03/30 01:04:24;;;;;;;52.22;37.38;;;;;;;6.39;100.00;98052.00;2089832;28;20191;-72
2022/03/30 01:05:27;;;;;;;53.55;37.78;;;;;;;6.38;100.00;98050.44;2089613;28;20198;-72
2022/03/30 01:06:30;;;;;;;52.80;37.40;;;;;;;6.38;100.00;98049.63;2089379;28;20226;-72
2022/03/30 01:07:34;;;;;;;59.72;39.45;;;;;;;6.39;100.00;98052.00;2090370;28;20197;-72
2022/03/30 01:08:37;;;;;;;51.83;39.10;;;;;;;6.38;100.00;98049.63;2090571;28;20645;-72
2022/03/30 01:09:38;;;;;;;55.80;38.78;;;;;;;6.39;100.00;98053.84;2090302;28;20210;-72
2022/03/30 01:10:40;;;;;;;55.92;39.85;;;;;;;6.36;100.00;98052.59;2090606;28;20190;-72
2022/03/30 01:11:42;;;;;;;54.20;39.60;;;;;;;6.36;100.00;98052.59;2090417;28;20619;-72
2022/03/30 01:12:45;;;;;;;57.17;39.15;;;;;;;6.36;100.00;98046.50;2089568;28;20197;-72
2022/03/30 01:13:46;;;;;;;54.42;37.97;;;;;;;6.34;100.00;98044.16;2089680;28;20282;-72
2022/03/30 01:14:49;;;;;;;59.07;39.13;;;;;;;6.34;100.00;98044.16;2089709;28;20197;-72
2022/03/30 01:15:51;;;;;;;54.00;38.42;;;;;;;6.34;100.00;98043.34;2081852;28;20453;-72
2022/03/30 01:16:53;;;;;;;53.55;38.40;;;;;;;6.33;100.00;98041.78;2081456;28;20238;-72
2022/03/30 01:17:56;;;;;;;59.03;38.50;;;;;;;6.33;100.00;98041.78;2089866;28;20241;-72
2022/03/30 01:19:05;;;;;;;50.30;37.30;;;;;;;6.32;100.00;98035.69;2090308;28;20191;-72
2022/03/30 01:20:14;;;;;;;61.10;38.85;;;;;;;6.31;100.00;98039.44;2089967;28;20237;-72
2022/03/30 01:21:18;;;;;;;54.95;37.35;;;;;;;6.31;100.00;98043.94;2082107;28;20302;-72
2022/03/30 01:22:20;;;;;;;55.78;39.67;;;;;;;6.30;100.00;98037.06;2089697;28;20242;-72
2022/03/30 01:23:21;;;;;;;54.45;38.08;;;;;;;6.30;100.00;98034.44;2090360;28;20222;-72
2022/03/30 01:24:24;;;;;;;55.67;37.25;;;;;;;6.28;100.00;98033.94;2089568;28;20206;-72
2022/03/30 01:25:27;;;;;;;49.30;35.83;;;;;;;6.29;100.00;98031.00;2089828;28;20191;-72
2022/03/30 01:26:29;;;;;;;58.60;38.08;;;;;;;6.31;100.00;98033.34;2090296;28;20194;-72
2022/03/30 01:27:32;;;;;;;55.53;38.20;;;;;;;6.29;100.00;98030.22;2090314;28;20191;-72
2022/03/30 01:28:34;;;;;;;53.50;37.47;;;;;;;6.31;100.00;98030.69;2089542;28;20293;-72
2022/03/30 01:32:27;;;;;;;50.92;36.65;;;;;;;6.31;100.00;98036.00;2089479;28;20557;-72
2022/03/30 01:33:32;;;;;;;55.38;37.22;;;;;;;6.29;100.00;98032.84;2089596;28;20181;-72
2022/03/30 01:34:34;;;;;;;49.60;35.67;;;;;;;6.26;100.00;98021.00;2082081;28;20230;-72
2022/03/30 01:35:38;;;;;;;50.28;35.45;;;;;;;6.30;100.00;98021.19;2081681;28;20253;-72
2022/03/30 01:36:44;;;;;;;50.95;37.83;;;;;;;6.28;100.00;98020.69;2089162;28;20603;-72
2022/03/30 01:37:47;;;;;;;59.83;37.60;;;;;;;6.27;100.00;98019.13;2090142;28;20203;-72
2022/03/30 01:38:48;;;;;;;54.00;36.70;;;;;;;6.22;100.00;98017.34;2091261;28;20594;-72
2022/03/30 01:39:51;;;;;;;57.30;36.73;;;;;;;6.21;100.00;98019.22;2091913;28;20265;-72
2022/03/30 01:40:53;;;;;;;49.72;35.65;;;;;;;6.19;100.00;98024.03;2091817;28;20218;-72
2022/03/30 01:41:55;;;;;;;53.50;37.50;;;;;;;6.17;100.00;98014.81;2091309;28;20203;-72
2022/03/30 01:42:57;;;;;;;50.10;35.80;;;;;;;6.15;100.00;98017.72;2091215;28;20214;-72
2022/03/30 01:43:59;;;;;;;53.05;36.13;;;;;;;6.13;100.00;98014.59;2091844;28;20199;-72
2022/03/30 01:45:01;;;;;;;52.95;37.17;;;;;;;6.13;100.00;98011.16;2092086;28;20245;-72
2022/03/30 01:46:04;;;;;;;53.25;36.42;;;;;;;6.10;100.00;98009.88;2091875;28;20209;-72
2022/03/30 01:47:10;;;;;;;53.40;37.00;;;;;;;6.09;100.00;98013.63;2091097;28;20645;-72
2022/03/30 01:48:11;;;;;;;53.88;36.28;;;;;;;6.10;100.00;98011.75;2083299;28;20210;-72
2022/03/30 01:49:14;;;;;;;55.72;37.05;;;;;;;6.10;100.00;98007.22;2091112;28;20344;-72
2022/03/30 01:50:19;;;;;;;54.75;36.67;;;;;;;6.10;100.00;98011.75;2090993;28;20692;-72
2022/03/30 01:51:21;;;;;;;53.38;35.38;;;;;;;6.09;100.00;98007.53;2090779;28;20229;-72
2022/03/30 01:52:25;;;;;;;49.95;35.10;;;;;;;6.10;100.00;98007.22;2091058;28;20268;-72
2022/03/30 01:53:27;;;;;;;52.80;35.20;;;;;;;6.10;100.00;98012.53;2082957;28;20291;-72
2022/03/30 01:54:28;;;;;;;46.35;34.28;;;;;;;6.11;100.00;98011.44;2091211;28;20278;-72
2022/03/30 01:55:31;;;;;;;49.20;34.05;;;;;;;6.12;100.00;98006.94;2091023;28;20214;-72
2022/03/30 01:56:32;;;;;;;51.10;34.67;;;;;;;6.10;100.00;98007.22;2082928;28;20195;-72
2022/03/30 01:57:34;;;;;;;52.30;34.58;;;;;;;6.08;100.00;98006.75;2091259;28;20194;-72
2022/03/30 01:58:35;;;;;;;42.75;33.40;;;;;;;6.10;100.00;98007.22;2091020;28;20551;-72
2022/03/30 01:59:42;;;;;;;48.63;34.77;;;;;;;6.08;100.00;98004.09;2091272;28;20308;-72
2022/03/30 02:00:45;;;;;;;48.72;34.67;;;;;;;6.09;100.00;98004.88;2091095;28;20425;-72
2022/03/30 02:01:46;;;;;;;51.90;36.08;;;;;;;6.08;100.00;98003.28;2091336;28;20253;-72
2022/03/30 02:02:50;;;;;;;51.08;36.05;;;;;;;6.08;100.00;98004.09;2090894;28;20204;-72
2022/03/30 02:03:51;;;;;;;54.95;37.45;;;;;;;6.08;100.00;97996.16;2091076;28;20629;-72
2022/03/30 02:04:54;;;;;;;47.28;35.08;;;;;;;6.09;100.00;98002.22;2091640;28;20692;-72
2022/03/30 02:05:59;;;;;;;52.40;36.60;;;;;;;6.07;100.00;97999.06;2090515;28;20210;-72
2022/03/30 02:07:02;;;;;;;53.92;37.05;;;;;;;6.07;100.00;97991.91;2083591;28;20720;-72
2022/03/30 02:08:05;;;;;;;61.80;38.33;;;;;;;6.09;100.00;97994.28;2082899;28;20217;-72
2022/03/30 02:09:07;;;;;;;56.58;37.20;;;;;;;6.09;100.00;97991.66;2082941;28;20286;-72
2022/03/30 02:10:10;;;;;;;54.10;38.00;;;;;;;6.10;100.00;97993.22;2082845;28;20286;-72
2022/03/30 02:11:12;;;;;;;55.05;36.13;;;;;;;6.11;100.00;97992.13;2082827;28;20214;-72
2022/03/30 02:12:14;;;;;;;53.75;36.92;;;;;;;6.13;100.00;97989.97;2082714;28;20195;-72
2022/03/30 02:13:15;;;;;;;58.97;38.03;;;;;;;6.12;100.00;97988.41;2091241;28;20273;-72
2022/03/30 02:14:18;;;;;;;54.78;36.97;;;;;;;6.11;100.00;97986.84;2091797;28;20201;-72
2022/03/30 02:15:22;;;;;;;50.67;37.05;;;;;;;6.11;100.00;97976.25;2091599;28;20194;-72
2022/03/30 02:16:24;;;;;;;55.63;36.58;;;;;;;6.10;100.00;97980.75;2091597;28;20191;-72
2022/03/30 02:17:27;;;;;;;50.28;36.15;;;;;;;6.11;100.00;97982.31;2091849;28;20686;-72
2022/03/30 02:18:29;;;;;;;54.92;38.63;;;;;;;6.13;100.00;97980.16;2091578;28;20190;-72
2022/03/30 02:19:31;;;;;;;53.30;37.65;;;;;;;6.14;100.00;97980.94;2091494;28;20197;-72
2022/03/30 02:20:34;;;;;;;55.47;38.00;;;;;;;6.14;100.00;97980.94;2091625;28;20195;-72
2022/03/30 02:21:37;;;;;;;56.30;38.90;;;;;;;6.14;100.00;97976.44;2090519;28;20242;-72
2022/03/30 02:22:40;;;;;;;56.50;38.63;;;;;;;6.14;100.00;97980.94;2090914;28;20191;-72
2022/03/30 02:23:45;;;;;;;57.53;37.50;;;;;;;6.13;100.00;97974.88;2090959;28;20218;-72
2022/03/30 02:24:47;;;;;;;55.00;37.10;;;;;;;6.14;100.00;97981.72;2091144;28;20206;-72
2022/03/30 02:25:49;;;;;;;58.58;37.95;;;;;;;6.12;100.00;97975.94;2091005;28;20645;-72
2022/03/30 02:26:52;;;;;;;55.03;37.92;;;;;;;6.12;100.00;97975.94;2091485;28;20684;-72
2022/03/30 02:27:54;;;;;;;50.95;36.20;;;;;;;6.11;100.00;97971.72;2091517;28;20555;-73
2022/03/30 02:28:58;;;;;;;55.13;36.63;;;;;;;6.12;100.00;97975.94;2091115;28;20591;-72
2022/03/30 02:30:01;;;;;;;60.53;37.75;;;;;;;6.12;100.00;97980.47;2082971;28;20207;-72
2022/03/30 02:31:02;;;;;;;51.35;37.72;;;;;;;6.11;100.00;97971.72;2090888;28;20203;-72
2022/03/30 02:32:06;;;;;;;52.88;36.75;;;;;;;6.10;100.00;97978.09;2091424;28;20195;-72
2022/03/30 02:33:07;;;;;;;51.25;35.95;;;;;;;6.11;100.00;97974.38;2091532;28;20191;-72
2022/03/30 02:34:10;;;;;;;50.15;36.15;;;;;;;6.11;100.00;97974.38;2090778;28;20198;-72
2022/03/30 02:35:12;;;;;;;53.70;37.17;;;;;;;6.10;100.00;97969.38;2090909;28;20199;-72
2022/03/30 02:36:15;;;;;;;55.55;36.97;;;;;;;6.10;100.00;97972.81;2090957;28;20226;-72
2022/03/30 02:37:17;;;;;;;60.80;36.47;;;;;;;6.09;100.00;97979.19;2090792;28;20195;-72
2022/03/30 02:38:20;;;;;;;53.03;36.67;;;;;;;6.09;100.00;97975.75;2090847;28;20187;-72
2022/03/30 02:39:22;;;;;;;52.63;37.35;;;;;;;6.05;100.00;97967.59;2090661;28;20586;-72
2022/03/30 02:40:25;;;;;;;52.40;36.30;;;;;;;6.04;100.00;97976.63;2090844;28;20187;-72
2022/03/30 02:41:28;;;;;;;54.38;35.55;;;;;;;6.03;100.00;97972.41;2090919;28;20263;-72
2022/03/30 02:42:31;;;;;;;56.75;37.05;;;;;;;6.03;100.00;97969.75;2082861;28;20573;-72
2022/03/30 02:43:32;;;;;;;54.03;36.90;;;;;;;6.02;100.00;97970.06;2090765;28;20211;-72
2022/03/30 02:44:36;;;;;;;52.30;35.67;;;;;;;6.02;100.00;97968.19;2091422;28;20240;-72
2022/03/30 02:45:38;;;;;;;52.50;36.33;;;;;;;6.01;100.00;97971.91;2091072;28;20203;-72
2022/03/30 02:46:41;;;;;;;49.88;35.88;;;;;;;6.01;100.00;97973.78;2090676;28;20677;-72
2022/03/30 02:49:03;;;;;;;50.13;35.15;;;;;;;6.00;100.00;97961.63;2090878;28;20226;-72
2022/03/30 02:50:05;;;;;;;50.88;35.28;;;;;;;5.99;100.00;97963.47;2090909;28;20258;-72
2022/03/30 02:51:11;;;;;;;53.70;37.20;;;;;;;5.96;100.00;97969.34;2090913;28;20230;-72
2022/03/30 02:52:14;;;;;;;50.78;36.30;;;;;;;5.96;100.00;97964.06;2090678;28;20257;-72
2022/03/30 02:53:16;;;;;;;52.90;36.75;;;;;;;5.98;100.00;97966.41;2082534;28;20212;-72
2022/03/30 02:54:18;;;;;;;54.95;36.42;;;;;;;5.98;100.00;97966.41;2082528;28;20199;-72
2022/03/30 02:55:21;;;;;;;54.17;36.13;;;;;;;5.95;100.00;97960.63;2090712;28;20227;-72
2022/03/30 02:56:23;;;;;;;51.55;36.55;;;;;;;5.94;100.00;97960.94;2091313;28;20248;-72
2022/03/30 02:57:24;;;;;;;52.72;36.22;;;;;;;5.94;100.00;97966.22;2091322;28;20192;-72
2022/03/30 02:58:26;;;;;;;50.40;36.40;;;;;;;5.95;100.00;97963.28;2091523;28;20183;-72
2022/03/30 02:59:29;;;;;;;49.15;35.75;;;;;;;5.95;100.00;97970.44;2091251;28;20468;-72
2022/03/30 03:00:31;;;;;;;51.85;35.28;;;;;;;5.93;100.00;97967.28;2091227;28;20289;-72
2022/03/30 03:01:33;;;;;;;53.60;36.95;;;;;;;5.92;100.00;97958.56;2090896;28;20253;-72
2022/03/30 03:02:35;;;;;;;58.15;37.35;;;;;;;5.92;100.00;97960.44;2090620;28;20704;-72
2022/03/30 03:03:37;;;;;;;56.22;36.67;;;;;;;5.90;100.00;97960.72;2090466;28;20622;-72
2022/03/30 03:04:39;;;;;;;51.65;36.08;;;;;;;5.89;100.00;97966.25;2090701;28;20183;-72
2022/03/30 03:05:42;;;;;;;58.10;37.78;;;;;;;5.89;100.00;97960.97;2090594;28;20689;-72
2022/03/30 03:06:43;;;;;;;54.10;37.03;;;;;;;5.85;100.00;97962.66;2090087;28;20222;-72
2022/03/30 03:07:47;;;;;;;56.47;37.83;;;;;;;5.85;100.00;97970.59;2091158;28;20197;-73
2022/03/30 03:08:48;;;;;;;56.15;38.22;;;;;;;5.81;100.00;97961.63;2090454;28;20210;-72
2022/03/30 03:09:52;;;;;;;59.75;36.25;;;;;;;5.80;100.00;97965.38;2090856;28;20193;-72
2022/03/30 03:10:56;;;;;;;55.83;37.47;;;;;;;5.77;100.00;97960.66;2091448;28;20653;-72
2022/03/30 03:11:57;;;;;;;53.00;37.22;;;;;;;5.72;100.00;97961.53;2091335;28;20266;-72
2022/03/30 03:12:59;;;;;;;58.43;38.63;;;;;;;5.72;100.00;97953.59;2091256;28;20187;-72
2022/03/30 03:14:05;;;;;;;58.65;37.65;;;;;;;5.70;100.00;97958.38;2091190;28;20479;-72
2022/03/30 03:15:07;;;;;;;62.55;39.00;;;;;;;5.67;100.00;97961.63;2091241;28;20179;-72
2022/03/30 03:16:09;;;;;;;54.97;39.10;;;;;;;5.60;100.00;97959.34;2091250;28;20185;-72
2022/03/30 03:17:10;;;;;;;57.05;38.75;;;;;;;5.60;100.00;97948.00;2091123;28;20226;-72
2022/03/30 03:18:15;;;;;;;62.58;38.10;;;;;;;5.57;100.00;97957.31;2091175;28;20183;-72
2022/03/30 03:19:18;;;;;;;55.80;38.45;;;;;;;5.55;100.00;97958.63;2091186;28;20679;-71
2022/03/30 03:20:21;;;;;;;52.67;38.08;;;;;;;5.51;100.00;97963.75;2090386;28;20289;-71
2022/03/30 03:21:23;;;;;;;56.53;39.63;;;;;;;5.49;100.00;97963.25;2082194;28;20266;-73
2022/03/30 03:22:25;;;;;;;55.25;38.58;;;;;;;5.44;100.00;97965.97;2090472;28;20195;-72
2022/03/30 03:23:27;;;;;;;60.20;38.85;;;;;;;5.44;100.00;97957.25;2090328;28;20281;-73
2022/03/30 03:24:28;;;;;;;52.80;37.33;;;;;;;5.44;100.00;97968.59;2082183;28;20199;-72
2022/03/30 03:25:34;;;;;;;54.30;38.20;;;;;;;5.43;100.00;97967.03;2090515;28;20278;-72
2022/03/30 03:26:36;;;;;;;56.65;37.97;;;;;;;5.42;100.00;97960.19;2090499;28;20697;-72
2022/03/30 03:27:39;;;;;;;60.30;38.85;;;;;;;5.41;100.00;97965.78;2082466;28;20200;-72
2022/03/30 03:28:40;;;;;;;61.15;38.55;;;;;;;5.41;100.00;97957.84;2090475;28;20195;-72
2022/03/30 03:29:44;;;;;;;56.95;38.55;;;;;;;5.38;100.00;97964.47;2091238;28;20197;-72
2022/03/30 03:30:45;;;;;;;56.03;38.63;;;;;;;5.38;100.00;97964.47;2090270;28;20736;-72
2022/03/30 03:31:49;;;;;;;54.93;37.50;;;;;;;5.39;100.00;97966.06;2090450;28;20597;-72
2022/03/30 03:32:51;;;;;;;63.85;39.72;;;;;;;5.38;100.00;97959.97;2090997;28;20218;-72
2022/03/30 03:33:53;;;;;;;53.20;37.20;;;;;;;5.37;100.00;97952.31;2091127;28;20195;-72
2022/03/30 03:34:54;;;;;;;56.97;37.67;;;;;;;5.37;100.00;97962.91;2091247;28;20260;-72
2022/03/30 03:35:57;;;;;;;54.33;37.33;;;;;;;5.35;100.00;97959.75;2090589;28;20218;-72
2022/03/30 03:36:59;;;;;;;57.33;39.17;;;;;;;5.36;100.00;97963.97;2090999;28;20332;-72
2022/03/30 03:38:03;;;;;;;56.35;38.50;;;;;;;5.34;100.00;97966.13;2091209;28;20194;-72
2022/03/30 03:39:05;;;;;;;57.83;39.15;;;;;;;5.30;100.00;97958.00;2090343;28;20198;-72
2022/03/30 03:40:09;;;;;;;58.67;37.88;;;;;;;5.30;100.00;97960.63;2082139;28;20253;-72
2022/03/30 03:41:11;;;;;;;53.67;37.60;;;;;;;5.31;100.00;97966.72;2090428;28;20187;-72
2022/03/30 03:42:14;;;;;;;57.78;39.03;;;;;;;5.29;100.00;97953.75;2090629;28;20203;-72
2022/03/30 03:43:17;;;;;;;59.10;39.10;;;;;;;5.27;100.00;97963.06;2090363;28;20175;-72
2022/03/30 03:44:18;;;;;;;54.05;38.67;;;;;;;5.29;100.00;97966.97;2090820;28;20227;-72
2022/03/30 03:45:21;;;;;;;55.35;38.95;;;;;;;5.31;100.00;97969.34;2090989;28;20211;-72
2022/03/30 03:46:22;;;;;;;54.75;38.42;;;;;;;5.29;100.00;97971.47;2090208;28;20276;-72
2022/03/30 03:47:24;;;;;;;60.55;38.05;;;;;;;5.29;100.00;97966.97;2081996;28;20593;-72
2022/03/30 03:48:26;;;;;;;63.55;40.35;;;;;;;5.29;100.00;97963.56;2090350;28;20649;-72
2022/03/30 03:49:27;;;;;;;57.42;39.50;;;;;;;5.27;100.00;97971.78;2090008;28;20226;-72
2022/03/30 03:50:30;;;;;;;62.25;39.38;;;;;;;5.29;100.00;97974.13;2090317;28;20210;-72
2022/03/30 03:51:31;;;;;;;62.20;38.63;;;;;;;5.27;100.00;97968.34;2089798;28;20230;-72
2022/03/30 03:52:33;;;;;;;58.75;37.70;;;;;;;5.28;100.00;97970.69;2090546;28;20190;-72
2022/03/30 03:53:35;;;;;;;62.20;40.30;;;;;;;5.29;100.00;97976.78;2090882;28;20583;-72
2022/03/30 03:54:37;;;;;;;64.43;39.13;;;;;;;5.28;100.00;97969.91;2090443;28;20355;-72
2022/03/30 03:55:38;;;;;;;58.15;39.10;;;;;;;5.28;100.00;97967.28;2082021;28;20706;-72
2022/03/30 03:56:41;;;;;;;56.22;39.15;;;;;;;5.30;100.00;97975.69;2090222;28;20191;-72
2022/03/30 03:57:43;;;;;;;65.28;40.58;;;;;;;5.29;100.00;97971.47;2090860;28;20769;-72
2022/03/30 03:58:48;;;;;;;64.57;39.58;;;;;;;5.28;100.00;97967.28;2090355;28;20246;-72
2022/03/30 03:59:49;;;;;;;61.40;39.25;;;;;;;5.29;100.00;97977.56;2090398;28;20514;-73
2022/03/30 04:00:51;;;;;;;57.77;38.43;;;;;;;5.29;100.00;97971.47;2090769;28;20198;-72
2022/03/30 04:01:54;;;;;;;59.92;38.55;;;;;;;5.30;100.00;97973.06;2090773;28;20206;-72
2022/03/30 04:02:56;;;;;;;55.60;38.78;;;;;;;5.29;100.00;97971.47;2090777;28;20189;-72
2022/03/30 04:03:58;;;;;;;65.53;40.30;;;;;;;5.26;100.00;97962.28;2090341;28;20219;-72
2022/03/30 04:05:00;;;;;;;64.10;39.60;;;;;;;5.27;100.00;97969.13;2090144;28;20215;-72
2022/03/30 04:06:03;;;;;;;59.85;38.88;;;;;;;5.29;100.00;97971.47;2089981;28;20658;-72
2022/03/30 04:07:05;;;;;;;61.63;40.40;;;;;;;5.29;100.00;97972.28;2090035;28;20211;-73
2022/03/30 04:08:10;;;;;;;65.00;42.88;;;;;;;5.29;100.00;97960.91;2081972;28;20199;-73
2022/03/30 04:09:11;;;;;;;68.57;41.60;;;;;;;5.28;100.00;97964.63;2090408;28;20199;-72
2022/03/30 04:10:15;;;;;;;67.80;43.20;;;;;;;5.25;100.00;97962.56;2090765;28;20229;-73
2022/03/30 04:11:16;;;;;;;68.22;43.13;;;;;;;5.27;100.00;97957.78;2090704;28;20692;-73
2022/03/30 04:12:19;;;;;;;63.33;42.00;;;;;;;5.29;100.00;97960.91;2090943;28;20191;-74
2022/03/30 04:13:22;;;;;;;61.70;40.53;;;;;;;5.29;100.00;97964.34;2089941;28;20230;-72
2022/03/30 04:14:25;;;;;;;64.63;42.30;;;;;;;5.29;100.00;97958.25;2082310;28;20196;-72
2022/03/30 04:15:28;;;;;;;70.60;43.63;;;;;;;5.29;100.00;97955.63;2090336;28;20191;-73
2022/03/30 04:16:29;;;;;;;68.55;40.58;;;;;;;5.29;100.00;97964.34;2090740;28;20195;-72
2022/03/30 04:17:33;;;;;;;60.72;39.15;;;;;;;5.25;100.00;97955.41;2090709;28;20187;-72
2022/03/30 04:18:34;;;;;;;62.13;39.83;;;;;;;5.25;100.00;97967.84;2090244;28;20199;-73
2022/03/30 04:19:36;;;;;;;58.30;38.58;;;;;;;5.21;100.00;97965.00;2090103;28;20726;-72
2022/03/30 04:20:43;;;;;;;64.43;40.47;;;;;;;5.21;100.00;97966.84;2090639;28;20221;-72
2022/03/30 04:21:45;;;;;;;59.42;39.10;;;;;;;5.18;100.00;97967.44;2089437;28;20219;-73
2022/03/30 04:22:47;;;;;;;57.95;39.20;;;;;;;5.17;100.00;97971.16;2090170;28;20195;-73
2022/03/30 04:23:49;;;;;;;74.05;41.60;;;;;;;5.13;100.00;97959.59;2089913;28;20565;-73
2022/03/30 04:24:51;;;;;;;66.13;39.42;;;;;;;5.10;100.00;97961.72;2090025;28;20198;-72
2022/03/30 04:25:53;;;;;;;59.70;40.20;;;;;;;5.15;100.00;97965.38;2089829;28;20198;-73
2022/03/30 04:26:55;;;;;;;64.93;39.90;;;;;;;5.10;100.00;97968.84;2090058;28;20187;-73
2022/03/30 04:28:00;;;;;;;62.22;41.20;;;;;;;5.09;100.00;97967.28;2089797;28;20202;-73
2022/03/30 04:29:06;;;;;;;62.05;40.72;;;;;;;5.06;100.00;97965.22;2090241;28;20313;-73
2022/03/30 04:30:11;;;;;;;61.60;40.83;;;;;;;5.06;100.00;97970.53;2090624;28;20187;-73
2022/03/30 04:31:12;;;;;;;63.50;40.97;;;;;;;5.04;100.00;97957.59;2090571;28;20198;-73
2022/03/30 04:32:14;;;;;;;59.50;39.67;;;;;;;5.03;100.00;97963.94;2090520;28;20273;-73
2022/03/30 04:33:16;;;;;;;60.45;42.25;;;;;;;5.01;100.00;97957.38;2090500;28;20919;-73
2022/03/30 04:34:18;;;;;;;62.85;39.75;;;;;;;5.01;100.00;97960.00;2090570;28;20693;-73
2022/03/30 04:35:24;;;;;;;55.78;39.60;;;;;;;4.99;100.00;97962.16;2090559;28;20658;-72
2022/03/30 04:36:27;;;;;;;59.20;39.70;;;;;;;4.99;100.00;97962.16;2090224;28;20237;-73
2022/03/30 04:37:28;;;;;;;60.88;39.88;;;;;;;4.96;100.00;97958.22;2090526;28;20649;-73
2022/03/30 04:38:30;;;;;;;58.25;39.60;;;;;;;4.96;100.00;97962.75;2089885;28;20210;-73
2022/03/30 04:39:33;;;;;;;58.08;39.97;;;;;;;4.94;100.00;97956.94;2090059;28;20249;-73
2022/03/30 04:40:35;;;;;;;59.88;39.22;;;;;;;4.98;100.00;97957.94;2090177;28;20198;-73
2022/03/30 04:41:39;;;;;;;65.57;40.08;;;;;;;4.96;100.00;97958.22;2081561;28;20250;-73
2022/03/30 04:42:43;;;;;;;65.60;40.35;;;;;;;4.95;100.00;97961.94;2089962;28;20194;-73
2022/03/30 04:43:44;;;;;;;60.90;40.67;;;;;;;4.94;100.00;97960.34;2090434;28;20190;-73
2022/03/30 04:44:49;;;;;;;57.53;39.03;;;;;;;4.93;100.00;97958.00;2090409;28;20564;-73
2022/03/30 04:45:51;;;;;;;61.20;38.78;;;;;;;4.93;100.00;97952.72;2089816;28;20198;-73
2022/03/30 04:46:54;;;;;;;60.65;38.90;;;;;;;4.91;100.00;97957.50;2090110;28;20187;-73
2022/03/30 04:47:55;;;;;;;66.20;40.17;;;;;;;4.90;100.00;97958.59;2090478;28;20218;-73
2022/03/30 04:48:59;;;;;;;55.97;39.50;;;;;;;4.90;100.00;97955.94;2089540;28;20223;-73
2022/03/30 04:50:01;;;;;;;71.10;39.67;;;;;;;4.87;100.00;97953.88;2089907;28;20195;-73
2022/03/30 04:51:03;;;;;;;60.70;40.40;;;;;;;4.86;100.00;97953.06;2090100;28;20191;-72
2022/03/30 04:52:05;;;;;;;62.10;40.25;;;;;;;4.83;100.00;97954.44;2090475;28;20653;-73